sensor_id;sensor_type;location;lat;lon;timestamp;temperature;humidity
10095;DHT22;5086;50.830;7.102;2023-06-10T00:00:52;20.70;99.90
10095;DHT22;5086;50.830;7.102;2023-06-10T00:03:19;20.60;99.90
10095;DHT22;5086;50.830;7.102;2023-06-10T00:05:48;20.60;99.90
10095;DHT22;5086;50.830;7.102;2023-06-10T00:08:15;20.50;99.90
10095;DHT22;5086;50.830;7.102;2023-06-10T00:10:45;20.40;99.90
10095;DHT22;5086;50.830;7.102;2023-06-10T00:13:12;20.20;99.90
10095;DHT22;5086;50.830;7.102;2023-06-10T00:15:40;20.10;99.90
10095;DHT22;5086;50.830;7.102;2023-06-10T00:18:11;20.00;99.90
10095;DHT22;5086;50.830;7.102;2023-06-10T00:20:38;19.90;99.90
10095;DHT22;5086;50.830;7.102;2023-06-10T00:23:05;19.90;99.90
10095;DHT22;5086;50.830;7.102;2023-06-10T00:25:34;19.80;99.90
10095;DHT22;5086;50.830;7.102;2023-06-10T00:28:00;19.70;99.90
10095;DHT22;5086;50.830;7.102;2023-06-10T00:30:27;19.70;99.90
10095;DHT22;5086;50.830;7.102;2023-06-10T00:32:55;19.60;99.90
10095;DHT22;5086;50.830;7.102;2023-06-10T00:35:22;19.50;99.90
10095;DHT22;5086;50.830;7.102;2023-06-10T00:37:49;19.40;99.90
10095;DHT22;5086;50.830;7.102;2023-06-10T00:40:16;19.30;99.90
10095;DHT22;5086;50.830;7.102;2023-06-10T00:42:43;19.20;99.90
10095;DHT22;5086;50.830;7.102;2023-06-10T00:45:10;19.20;99.90
10095;DHT22;5086;50.830;7.102;2023-06-10T00:47:37;19.00;99.90
10095;DHT22;5086;50.830;7.102;2023-06-10T00:50:06;19.10;99.90
10095;DHT22;5086;50.830;7.102;2023-06-10T00:52:33;19.00;99.90
10095;DHT22;5086;50.830;7.102;2023-06-10T00:55:01;19.00;99.90
10095;DHT22;5086;50.830;7.102;2023-06-10T00:57:28;18.70;99.90
10095;DHT22;5086;50.830;7.102;2023-06-10T00:59:58;18.70;99.90
10095;DHT22;5086;50.830;7.102;2023-06-10T01:02:25;18.70;99.90
10095;DHT22;5086;50.830;7.102;2023-06-10T01:04:51;18.70;99.90
10095;DHT22;5086;50.830;7.102;2023-06-10T01:07:24;18.70;99.90
10095;DHT22;5086;50.830;7.102;2023-06-10T01:09:55;18.50;99.90
10095;DHT22;5086;50.830;7.102;2023-06-10T01:12:31;18.30;99.90
10095;DHT22;5086;50.830;7.102;2023-06-10T01:14:59;18.40;99.90
10095;DHT22;5086;50.830;7.102;2023-06-10T01:17:27;18.40;99.90
10095;DHT22;5086;50.830;7.102;2023-06-10T01:19:56;18.40;99.90
10095;DHT22;5086;50.830;7.102;2023-06-10T01:22:25;18.30;99.90
10095;DHT22;5086;50.830;7.102;2023-06-10T01:24:54;18.40;99.90
10095;DHT22;5086;50.830;7.102;2023-06-10T01:27:26;18.20;99.90
10095;DHT22;5086;50.830;7.102;2023-06-10T01:29:58;18.10;99.90
10095;DHT22;5086;50.830;7.102;2023-06-10T01:32:33;18.10;99.90
10095;DHT22;5086;50.830;7.102;2023-06-10T01:35:02;18.20;99.90
10095;DHT22;5086;50.830;7.102;2023-06-10T01:37:33;18.20;99.90
10095;DHT22;5086;50.830;7.102;2023-06-10T01:40:00;18.20;99.90
10095;DHT22;5086;50.830;7.102;2023-06-10T01:42:30;18.20;99.90
10095;DHT22;5086;50.830;7.102;2023-06-10T01:44:57;18.10;99.90
10095;DHT22;5086;50.830;7.102;2023-06-10T01:47:24;18.00;99.90
10095;DHT22;5086;50.830;7.102;2023-06-10T01:49:51;17.90;99.90
10095;DHT22;5086;50.830;7.102;2023-06-10T01:52:18;18.00;99.90
10095;DHT22;5086;50.830;7.102;2023-06-10T01:54:46;18.00;99.90
10095;DHT22;5086;50.830;7.102;2023-06-10T01:57:12;17.90;99.90
10095;DHT22;5086;50.830;7.102;2023-06-10T01:59:39;18.00;99.90
10095;DHT22;5086;50.830;7.102;2023-06-10T02:02:07;18.00;99.90
10095;DHT22;5086;50.830;7.102;2023-06-10T02:04:34;17.90;99.90
10095;DHT22;5086;50.830;7.102;2023-06-10T02:07:01;17.80;99.90
10095;DHT22;5086;50.830;7.102;2023-06-10T02:09:29;17.70;99.90
10095;DHT22;5086;50.830;7.102;2023-06-10T02:11:57;17.70;99.90
10095;DHT22;5086;50.830;7.102;2023-06-10T02:14:24;17.70;99.90
10095;DHT22;5086;50.830;7.102;2023-06-10T02:16:51;17.70;99.90
10095;DHT22;5086;50.830;7.102;2023-06-10T02:19:21;17.70;99.90
10095;DHT22;5086;50.830;7.102;2023-06-10T02:21:48;17.80;99.90
10095;DHT22;5086;50.830;7.102;2023-06-10T02:24:15;17.70;99.90
10095;DHT22;5086;50.830;7.102;2023-06-10T02:26:43;17.60;99.90
10095;DHT22;5086;50.830;7.102;2023-06-10T02:29:11;17.70;99.90
10095;DHT22;5086;50.830;7.102;2023-06-10T02:31:38;17.60;99.90
10095;DHT22;5086;50.830;7.102;2023-06-10T02:34:06;17.50;99.90
10095;DHT22;5086;50.830;7.102;2023-06-10T02:36:33;17.40;99.90
10095;DHT22;5086;50.830;7.102;2023-06-10T02:39:01;17.40;99.90
10095;DHT22;5086;50.830;7.102;2023-06-10T02:41:28;17.50;99.90
10095;DHT22;5086;50.830;7.102;2023-06-10T02:43:55;17.50;99.90
10095;DHT22;5086;50.830;7.102;2023-06-10T02:46:23;17.50;99.90
10095;DHT22;5086;50.830;7.102;2023-06-10T02:48:49;17.30;99.90
10095;DHT22;5086;50.830;7.102;2023-06-10T02:51:17;17.40;99.90
10095;DHT22;5086;50.830;7.102;2023-06-10T02:53:44;17.40;99.90
10095;DHT22;5086;50.830;7.102;2023-06-10T02:56:10;17.40;99.90
10095;DHT22;5086;50.830;7.102;2023-06-10T02:58:38;17.40;99.90
10095;DHT22;5086;50.830;7.102;2023-06-10T03:01:04;17.50;99.90
10095;DHT22;5086;50.830;7.102;2023-06-10T03:03:32;17.40;99.90
10095;DHT22;5086;50.830;7.102;2023-06-10T03:06:00;17.40;99.90
10095;DHT22;5086;50.830;7.102;2023-06-10T03:08:28;17.30;99.90
10095;DHT22;5086;50.830;7.102;2023-06-10T03:10:55;17.30;99.90
10095;DHT22;5086;50.830;7.102;2023-06-10T03:13:22;17.30;99.90
10095;DHT22;5086;50.830;7.102;2023-06-10T03:15:49;17.20;99.90
10095;DHT22;5086;50.830;7.102;2023-06-10T03:18:16;17.10;99.90
10095;DHT22;5086;50.830;7.102;2023-06-10T03:20:44;17.00;99.90
10095;DHT22;5086;50.830;7.102;2023-06-10T03:23:11;16.90;99.90
10095;DHT22;5086;50.830;7.102;2023-06-10T03:25:38;16.90;99.90
10095;DHT22;5086;50.830;7.102;2023-06-10T03:28:04;16.90;99.90
10095;DHT22;5086;50.830;7.102;2023-06-10T03:30:31;16.90;99.90
10095;DHT22;5086;50.830;7.102;2023-06-10T03:32:58;17.00;99.90
10095;DHT22;5086;50.830;7.102;2023-06-10T03:35:25;17.00;99.90
10095;DHT22;5086;50.830;7.102;2023-06-10T03:37:53;17.10;99.90
10095;DHT22;5086;50.830;7.102;2023-06-10T03:40:20;17.00;99.90
10095;DHT22;5086;50.830;7.102;2023-06-10T03:42:47;17.00;99.90
10095;DHT22;5086;50.830;7.102;2023-06-10T03:45:14;17.00;99.90
10095;DHT22;5086;50.830;7.102;2023-06-10T03:47:40;17.00;99.90
10095;DHT22;5086;50.830;7.102;2023-06-10T03:50:09;17.10;99.90
10095;DHT22;5086;50.830;7.102;2023-06-10T03:52:37;17.10;99.90
10095;DHT22;5086;50.830;7.102;2023-06-10T03:55:07;17.20;99.90
10095;DHT22;5086;50.830;7.102;2023-06-10T03:57:33;17.30;99.90
10095;DHT22;5086;50.830;7.102;2023-06-10T04:00:00;17.40;99.90
10095;DHT22;5086;50.830;7.102;2023-06-10T04:02:30;17.60;99.90
10095;DHT22;5086;50.830;7.102;2023-06-10T04:04:58;17.60;99.90
10095;DHT22;5086;50.830;7.102;2023-06-10T04:07:25;17.60;99.90
10095;DHT22;5086;50.830;7.102;2023-06-10T04:09:52;17.70;99.90
10095;DHT22;5086;50.830;7.102;2023-06-10T04:12:20;17.80;99.90
10095;DHT22;5086;50.830;7.102;2023-06-10T04:14:47;17.90;99.90
10095;DHT22;5086;50.830;7.102;2023-06-10T04:17:14;18.00;99.90
10095;DHT22;5086;50.830;7.102;2023-06-10T04:19:40;18.00;99.90
10095;DHT22;5086;50.830;7.102;2023-06-10T04:22:07;18.10;99.90
10095;DHT22;5086;50.830;7.102;2023-06-10T04:24:34;18.20;99.90
10095;DHT22;5086;50.830;7.102;2023-06-10T04:27:01;18.20;99.90
10095;DHT22;5086;50.830;7.102;2023-06-10T04:29:30;18.30;99.90
10095;DHT22;5086;50.830;7.102;2023-06-10T04:31:56;18.20;99.90
10095;DHT22;5086;50.830;7.102;2023-06-10T04:34:23;18.40;99.90
10095;DHT22;5086;50.830;7.102;2023-06-10T04:36:51;18.50;99.90
10095;DHT22;5086;50.830;7.102;2023-06-10T04:39:17;18.40;99.90
10095;DHT22;5086;50.830;7.102;2023-06-10T04:41:45;18.30;99.90
10095;DHT22;5086;50.830;7.102;2023-06-10T04:44:12;18.40;99.90
10095;DHT22;5086;50.830;7.102;2023-06-10T04:46:40;18.50;99.90
10095;DHT22;5086;50.830;7.102;2023-06-10T04:49:07;18.60;99.90
10095;DHT22;5086;50.830;7.102;2023-06-10T04:51:34;18.60;99.90
10095;DHT22;5086;50.830;7.102;2023-06-10T04:54:01;18.70;99.90
10095;DHT22;5086;50.830;7.102;2023-06-10T04:56:29;18.90;99.90
10095;DHT22;5086;50.830;7.102;2023-06-10T04:58:56;19.00;99.90
10095;DHT22;5086;50.830;7.102;2023-06-10T05:01:23;19.10;99.90
10095;DHT22;5086;50.830;7.102;2023-06-10T05:03:51;19.20;99.90
10095;DHT22;5086;50.830;7.102;2023-06-10T05:06:18;19.40;99.90
10095;DHT22;5086;50.830;7.102;2023-06-10T05:08:45;19.70;99.90
10095;DHT22;5086;50.830;7.102;2023-06-10T05:11:12;20.20;99.90
10095;DHT22;5086;50.830;7.102;2023-06-10T05:13:38;20.50;99.90
10095;DHT22;5086;50.830;7.102;2023-06-10T05:16:06;20.70;99.90
10095;DHT22;5086;50.830;7.102;2023-06-10T05:18:33;20.90;99.90
10095;DHT22;5086;50.830;7.102;2023-06-10T05:21:02;21.10;99.90
10095;DHT22;5086;50.830;7.102;2023-06-10T05:23:29;21.30;99.90
10095;DHT22;5086;50.830;7.102;2023-06-10T05:25:56;21.40;99.90
10095;DHT22;5086;50.830;7.102;2023-06-10T05:28:23;21.70;99.90
10095;DHT22;5086;50.830;7.102;2023-06-10T05:30:50;21.90;99.90
10095;DHT22;5086;50.830;7.102;2023-06-10T05:33:17;22.10;99.90
10095;DHT22;5086;50.830;7.102;2023-06-10T05:35:44;22.40;99.90
10095;DHT22;5086;50.830;7.102;2023-06-10T05:38:13;22.70;99.90
10095;DHT22;5086;50.830;7.102;2023-06-10T05:40:40;22.60;99.90
10095;DHT22;5086;50.830;7.102;2023-06-10T05:43:07;22.70;99.90
10095;DHT22;5086;50.830;7.102;2023-06-10T05:45:35;22.70;99.90
10095;DHT22;5086;50.830;7.102;2023-06-10T05:48:01;22.90;99.90
10095;DHT22;5086;50.830;7.102;2023-06-10T05:50:28;23.20;99.90
10095;DHT22;5086;50.830;7.102;2023-06-10T05:52:55;23.30;99.90
10095;DHT22;5086;50.830;7.102;2023-06-10T05:55:24;23.50;99.90
10095;DHT22;5086;50.830;7.102;2023-06-10T05:57:58;23.60;99.90
10095;DHT22;5086;50.830;7.102;2023-06-10T06:00:25;23.80;99.90
10095;DHT22;5086;50.830;7.102;2023-06-10T06:02:53;23.80;99.90
10095;DHT22;5086;50.830;7.102;2023-06-10T06:05:21;23.90;99.90
10095;DHT22;5086;50.830;7.102;2023-06-10T06:07:47;24.00;99.90
10095;DHT22;5086;50.830;7.102;2023-06-10T06:10:14;24.20;99.90
10095;DHT22;5086;50.830;7.102;2023-06-10T06:12:42;24.40;99.90
10095;DHT22;5086;50.830;7.102;2023-06-10T06:15:10;24.50;99.90
10095;DHT22;5086;50.830;7.102;2023-06-10T06:17:40;24.50;99.90
10095;DHT22;5086;50.830;7.102;2023-06-10T06:20:08;24.70;99.90
10095;DHT22;5086;50.830;7.102;2023-06-10T06:22:34;24.70;99.90
10095;DHT22;5086;50.830;7.102;2023-06-10T06:25:01;25.00;99.90
10095;DHT22;5086;50.830;7.102;2023-06-10T06:27:28;25.00;99.90
10095;DHT22;5086;50.830;7.102;2023-06-10T06:29:56;25.00;99.90
10095;DHT22;5086;50.830;7.102;2023-06-10T06:32:23;25.30;99.90
10095;DHT22;5086;50.830;7.102;2023-06-10T06:34:52;25.50;99.90
10095;DHT22;5086;50.830;7.102;2023-06-10T06:37:21;25.40;99.90
10095;DHT22;5086;50.830;7.102;2023-06-10T06:39:49;25.50;99.90
10095;DHT22;5086;50.830;7.102;2023-06-10T06:42:19;25.80;99.90
10095;DHT22;5086;50.830;7.102;2023-06-10T06:44:47;25.50;99.90
10095;DHT22;5086;50.830;7.102;2023-06-10T06:47:16;25.50;99.90
10095;DHT22;5086;50.830;7.102;2023-06-10T06:49:45;25.90;99.90
10095;DHT22;5086;50.830;7.102;2023-06-10T06:52:11;26.10;99.90
10095;DHT22;5086;50.830;7.102;2023-06-10T06:54:40;26.50;99.90
10095;DHT22;5086;50.830;7.102;2023-06-10T06:57:07;26.80;99.90
10095;DHT22;5086;50.830;7.102;2023-06-10T06:59:34;26.90;99.90
10095;DHT22;5086;50.830;7.102;2023-06-10T07:02:01;27.10;99.90
10095;DHT22;5086;50.830;7.102;2023-06-10T07:04:29;27.20;99.90
10095;DHT22;5086;50.830;7.102;2023-06-10T07:06:56;27.30;99.90
10095;DHT22;5086;50.830;7.102;2023-06-10T07:09:23;27.50;99.90
10095;DHT22;5086;50.830;7.102;2023-06-10T07:11:49;27.40;99.90
10095;DHT22;5086;50.830;7.102;2023-06-10T07:14:16;27.60;99.90
10095;DHT22;5086;50.830;7.102;2023-06-10T07:16:43;27.50;99.90
10095;DHT22;5086;50.830;7.102;2023-06-10T07:19:10;27.60;99.90
10095;DHT22;5086;50.830;7.102;2023-06-10T07:21:38;27.70;99.90
10095;DHT22;5086;50.830;7.102;2023-06-10T07:24:06;27.80;99.90
10095;DHT22;5086;50.830;7.102;2023-06-10T07:26:33;27.80;99.90
10095;DHT22;5086;50.830;7.102;2023-06-10T07:29:01;28.00;99.90
10095;DHT22;5086;50.830;7.102;2023-06-10T07:31:28;28.30;99.90
10095;DHT22;5086;50.830;7.102;2023-06-10T07:33:55;28.30;99.90
10095;DHT22;5086;50.830;7.102;2023-06-10T07:36:22;28.60;99.90
10095;DHT22;5086;50.830;7.102;2023-06-10T07:38:50;28.70;99.90
10095;DHT22;5086;50.830;7.102;2023-06-10T07:41:16;28.80;99.90
10095;DHT22;5086;50.830;7.102;2023-06-10T07:43:45;29.00;99.90
10095;DHT22;5086;50.830;7.102;2023-06-10T07:46:11;28.80;99.80
10095;DHT22;5086;50.830;7.102;2023-06-10T07:48:38;29.00;99.30
10095;DHT22;5086;50.830;7.102;2023-06-10T07:51:05;29.00;99.30
10095;DHT22;5086;50.830;7.102;2023-06-10T07:53:32;28.70;98.90
10095;DHT22;5086;50.830;7.102;2023-06-10T07:56:00;29.10;98.80
10095;DHT22;5086;50.830;7.102;2023-06-10T07:58:27;29.30;99.50
10095;DHT22;5086;50.830;7.102;2023-06-10T08:00:54;29.60;99.20
10095;DHT22;5086;50.830;7.102;2023-06-10T08:03:21;30.00;98.20
10095;DHT22;5086;50.830;7.102;2023-06-10T08:05:47;30.20;98.70
10095;DHT22;5086;50.830;7.102;2023-06-10T08:08:14;30.40;97.00
10095;DHT22;5086;50.830;7.102;2023-06-10T08:10:41;30.30;96.20
10095;DHT22;5086;50.830;7.102;2023-06-10T08:13:09;30.30;96.80
10095;DHT22;5086;50.830;7.102;2023-06-10T08:15:39;30.40;96.40
10095;DHT22;5086;50.830;7.102;2023-06-10T08:18:08;30.30;95.70
10095;DHT22;5086;50.830;7.102;2023-06-10T08:20:34;29.60;97.10
10095;DHT22;5086;50.830;7.102;2023-06-10T08:23:01;29.50;97.30
10095;DHT22;5086;50.830;7.102;2023-06-10T08:25:28;29.70;96.10
10095;DHT22;5086;50.830;7.102;2023-06-10T08:27:55;29.70;95.90
10095;DHT22;5086;50.830;7.102;2023-06-10T08:30:24;29.60;96.20
10095;DHT22;5086;50.830;7.102;2023-06-10T08:32:51;29.50;96.90
10095;DHT22;5086;50.830;7.102;2023-06-10T08:35:18;29.70;97.40
10095;DHT22;5086;50.830;7.102;2023-06-10T08:37:45;29.70;97.30
10095;DHT22;5086;50.830;7.102;2023-06-10T08:40:12;29.60;97.70
10095;DHT22;5086;50.830;7.102;2023-06-10T08:42:44;29.60;98.20
10095;DHT22;5086;50.830;7.102;2023-06-10T08:45:16;29.50;96.90
10095;DHT22;5086;50.830;7.102;2023-06-10T08:47:45;29.40;96.80
10095;DHT22;5086;50.830;7.102;2023-06-10T08:50:12;29.30;97.90
10095;DHT22;5086;50.830;7.102;2023-06-10T08:52:43;29.50;97.90
10095;DHT22;5086;50.830;7.102;2023-06-10T08:55:12;29.60;98.20
10095;DHT22;5086;50.830;7.102;2023-06-10T08:57:40;29.50;97.00
10095;DHT22;5086;50.830;7.102;2023-06-10T09:00:11;29.20;97.60
10095;DHT22;5086;50.830;7.102;2023-06-10T09:02:38;29.10;97.10
10095;DHT22;5086;50.830;7.102;2023-06-10T09:05:08;28.30;96.20
10095;DHT22;5086;50.830;7.102;2023-06-10T09:07:35;28.60;98.60
10095;DHT22;5086;50.830;7.102;2023-06-10T09:10:03;28.30;98.20
10095;DHT22;5086;50.830;7.102;2023-06-10T09:12:32;28.90;99.20
10095;DHT22;5086;50.830;7.102;2023-06-10T09:14:59;29.30;98.20
10095;DHT22;5086;50.830;7.102;2023-06-10T09:17:26;29.40;96.40
10095;DHT22;5086;50.830;7.102;2023-06-10T09:19:53;29.40;98.00
10095;DHT22;5086;50.830;7.102;2023-06-10T09:22:22;29.40;96.90
10095;DHT22;5086;50.830;7.102;2023-06-10T09:24:49;29.60;97.90
10095;DHT22;5086;50.830;7.102;2023-06-10T09:27:17;29.70;98.50
10095;DHT22;5086;50.830;7.102;2023-06-10T09:33:26;29.70;97.50
10095;DHT22;5086;50.830;7.102;2023-06-10T09:35:55;29.80;95.80
10095;DHT22;5086;50.830;7.102;2023-06-10T09:38:52;30.00;99.50
10095;DHT22;5086;50.830;7.102;2023-06-10T09:41:51;29.90;99.50
10095;DHT22;5086;50.830;7.102;2023-06-10T09:48:47;29.40;97.40
10095;DHT22;5086;50.830;7.102;2023-06-10T09:51:26;29.80;95.70
10095;DHT22;5086;50.830;7.102;2023-06-10T09:53:54;30.10;95.40
10095;DHT22;5086;50.830;7.102;2023-06-10T09:56:21;30.10;95.90
10095;DHT22;5086;50.830;7.102;2023-06-10T09:58:58;29.90;96.20
10095;DHT22;5086;50.830;7.102;2023-06-10T10:04:47;29.60;95.80
10095;DHT22;5086;50.830;7.102;2023-06-10T10:07:20;29.40;94.50
10095;DHT22;5086;50.830;7.102;2023-06-10T10:09:48;29.50;97.80
10095;DHT22;5086;50.830;7.102;2023-06-10T10:12:16;29.80;93.20
10095;DHT22;5086;50.830;7.102;2023-06-10T10:14:46;29.90;93.90
10095;DHT22;5086;50.830;7.102;2023-06-10T10:17:15;30.40;92.60
10095;DHT22;5086;50.830;7.102;2023-06-10T10:19:46;30.30;92.60
10095;DHT22;5086;50.830;7.102;2023-06-10T10:22:19;29.90;92.30
10095;DHT22;5086;50.830;7.102;2023-06-10T10:24:51;30.40;93.30
10095;DHT22;5086;50.830;7.102;2023-06-10T10:27:23;30.00;92.50
10095;DHT22;5086;50.830;7.102;2023-06-10T10:29:52;30.30;94.70
10095;DHT22;5086;50.830;7.102;2023-06-10T10:32:24;30.00;92.90
10095;DHT22;5086;50.830;7.102;2023-06-10T10:34:58;30.30;93.70
10095;DHT22;5086;50.830;7.102;2023-06-10T10:37:28;30.50;94.20
10095;DHT22;5086;50.830;7.102;2023-06-10T10:39:57;30.70;93.20
10095;DHT22;5086;50.830;7.102;2023-06-10T10:42:24;30.50;93.50
10095;DHT22;5086;50.830;7.102;2023-06-10T10:44:52;30.30;92.00
10095;DHT22;5086;50.830;7.102;2023-06-10T10:47:21;30.30;93.50
10095;DHT22;5086;50.830;7.102;2023-06-10T10:49:51;30.50;92.00
10095;DHT22;5086;50.830;7.102;2023-06-10T10:52:18;30.80;91.60
10095;DHT22;5086;50.830;7.102;2023-06-10T10:54:46;30.80;90.50
10095;DHT22;5086;50.830;7.102;2023-06-10T10:57:16;30.80;90.40
10095;DHT22;5086;50.830;7.102;2023-06-10T10:59:51;30.50;91.40
10095;DHT22;5086;50.830;7.102;2023-06-10T11:02:33;30.60;92.60
10095;DHT22;5086;50.830;7.102;2023-06-10T11:05:01;30.70;90.30
10095;DHT22;5086;50.830;7.102;2023-06-10T11:07:32;30.60;89.90
10095;DHT22;5086;50.830;7.102;2023-06-10T11:10:00;30.60;90.70
10095;DHT22;5086;50.830;7.102;2023-06-10T11:12:41;30.50;89.60
10095;DHT22;5086;50.830;7.102;2023-06-10T11:15:08;30.20;89.40
10095;DHT22;5086;50.830;7.102;2023-06-10T11:17:35;30.10;86.40
10095;DHT22;5086;50.830;7.102;2023-06-10T11:20:11;29.90;85.00
10095;DHT22;5086;50.830;7.102;2023-06-10T11:23:01;29.80;89.50
10095;DHT22;5086;50.830;7.102;2023-06-10T11:25:38;30.00;90.80
10095;DHT22;5086;50.830;7.102;2023-06-10T11:28:24;30.30;89.10
10095;DHT22;5086;50.830;7.102;2023-06-10T11:31:05;30.30;85.80
10095;DHT22;5086;50.830;7.102;2023-06-10T11:33:32;30.30;84.10
10095;DHT22;5086;50.830;7.102;2023-06-10T11:36:06;29.90;82.50
10095;DHT22;5086;50.830;7.102;2023-06-10T11:38:33;29.70;83.40
10095;DHT22;5086;50.830;7.102;2023-06-10T11:41:01;29.60;83.60
10095;DHT22;5086;50.830;7.102;2023-06-10T11:43:30;29.30;84.20
10095;DHT22;5086;50.830;7.102;2023-06-10T11:46:03;29.40;83.40
10095;DHT22;5086;50.830;7.102;2023-06-10T11:48:30;29.50;83.70
10095;DHT22;5086;50.830;7.102;2023-06-10T11:50:57;29.60;81.30
10095;DHT22;5086;50.830;7.102;2023-06-10T11:53:23;29.80;82.80
10095;DHT22;5086;50.830;7.102;2023-06-10T11:55:51;30.00;80.40
10095;DHT22;5086;50.830;7.102;2023-06-10T11:58:20;30.20;80.80
10095;DHT22;5086;50.830;7.102;2023-06-10T12:00:52;30.20;81.90
10095;DHT22;5086;50.830;7.102;2023-06-10T12:03:19;30.30;81.20
10095;DHT22;5086;50.830;7.102;2023-06-10T12:05:57;30.30;82.10
10095;DHT22;5086;50.830;7.102;2023-06-10T12:08:25;30.50;77.20
10095;DHT22;5086;50.830;7.102;2023-06-10T12:10:52;30.30;76.10
10095;DHT22;5086;50.830;7.102;2023-06-10T12:13:20;30.50;80.60
10095;DHT22;5086;50.830;7.102;2023-06-10T12:15:47;30.40;78.80
10095;DHT22;5086;50.830;7.102;2023-06-10T12:18:19;30.60;81.10
10095;DHT22;5086;50.830;7.102;2023-06-10T12:20:46;30.60;76.50
10095;DHT22;5086;50.830;7.102;2023-06-10T12:23:14;30.50;78.40
10095;DHT22;5086;50.830;7.102;2023-06-10T12:25:50;30.40;76.20
10095;DHT22;5086;50.830;7.102;2023-06-10T12:28:21;30.40;79.90
10095;DHT22;5086;50.830;7.102;2023-06-10T12:30:48;30.00;77.60
10095;DHT22;5086;50.830;7.102;2023-06-10T12:33:20;29.80;78.60
10095;DHT22;5086;50.830;7.102;2023-06-10T12:35:47;29.90;77.90
10095;DHT22;5086;50.830;7.102;2023-06-10T12:38:21;29.90;77.30
10095;DHT22;5086;50.830;7.102;2023-06-10T12:40:48;29.70;76.60
10095;DHT22;5086;50.830;7.102;2023-06-10T12:43:19;29.60;74.70
10095;DHT22;5086;50.830;7.102;2023-06-10T12:45:46;29.50;80.40
10095;DHT22;5086;50.830;7.102;2023-06-10T12:48:19;29.70;78.60
10095;DHT22;5086;50.830;7.102;2023-06-10T12:50:51;29.90;75.20
10095;DHT22;5086;50.830;7.102;2023-06-10T12:53:21;30.10;74.10
10095;DHT22;5086;50.830;7.102;2023-06-10T12:55:52;30.10;74.10
10095;DHT22;5086;50.830;7.102;2023-06-10T12:58:19;30.10;72.10
10095;DHT22;5086;50.830;7.102;2023-06-10T13:00:46;30.00;75.90
10095;DHT22;5086;50.830;7.102;2023-06-10T13:03:14;30.20;74.10
10095;DHT22;5086;50.830;7.102;2023-06-10T13:05:43;30.20;74.10
10095;DHT22;5086;50.830;7.102;2023-06-10T13:08:10;30.30;73.50
10095;DHT22;5086;50.830;7.102;2023-06-10T13:10:37;30.30;72.90
10095;DHT22;5086;50.830;7.102;2023-06-10T13:13:04;30.40;69.30
10095;DHT22;5086;50.830;7.102;2023-06-10T13:15:33;30.50;68.40
10095;DHT22;5086;50.830;7.102;2023-06-10T13:18:01;30.50;70.80
10095;DHT22;5086;50.830;7.102;2023-06-10T13:20:29;30.40;73.40
10095;DHT22;5086;50.830;7.102;2023-06-10T13:22:58;30.30;72.90
10095;DHT22;5086;50.830;7.102;2023-06-10T13:25:25;30.10;69.90
10095;DHT22;5086;50.830;7.102;2023-06-10T13:27:52;30.30;69.40
10095;DHT22;5086;50.830;7.102;2023-06-10T13:30:19;30.60;67.70
10095;DHT22;5086;50.830;7.102;2023-06-10T13:32:46;30.70;68.90
10095;DHT22;5086;50.830;7.102;2023-06-10T13:35:12;30.90;71.30
10095;DHT22;5086;50.830;7.102;2023-06-10T13:37:39;31.20;72.70
10095;DHT22;5086;50.830;7.102;2023-06-10T13:40:13;31.10;70.40
10095;DHT22;5086;50.830;7.102;2023-06-10T13:42:41;31.10;70.60
10095;DHT22;5086;50.830;7.102;2023-06-10T13:45:08;30.90;70.40
10095;DHT22;5086;50.830;7.102;2023-06-10T13:47:35;30.90;72.10
10095;DHT22;5086;50.830;7.102;2023-06-10T13:50:16;31.00;72.30
10095;DHT22;5086;50.830;7.102;2023-06-10T13:52:46;31.30;72.90
10095;DHT22;5086;50.830;7.102;2023-06-10T13:55:14;31.20;71.80
10095;DHT22;5086;50.830;7.102;2023-06-10T13:57:42;31.20;70.20
10095;DHT22;5086;50.830;7.102;2023-06-10T14:00:09;31.00;70.60
10095;DHT22;5086;50.830;7.102;2023-06-10T14:02:36;30.60;71.30
10095;DHT22;5086;50.830;7.102;2023-06-10T14:05:05;30.30;72.70
10095;DHT22;5086;50.830;7.102;2023-06-10T14:07:33;30.10;72.90
10095;DHT22;5086;50.830;7.102;2023-06-10T14:10:00;30.00;72.10
10095;DHT22;5086;50.830;7.102;2023-06-10T14:12:29;29.80;71.50
10095;DHT22;5086;50.830;7.102;2023-06-10T14:14:55;29.80;73.80
10095;DHT22;5086;50.830;7.102;2023-06-10T14:17:22;29.90;73.10
10095;DHT22;5086;50.830;7.102;2023-06-10T14:19:49;29.90;77.40
10095;DHT22;5086;50.830;7.102;2023-06-10T14:22:16;30.00;75.10
10095;DHT22;5086;50.830;7.102;2023-06-10T14:24:43;30.00;75.20
10095;DHT22;5086;50.830;7.102;2023-06-10T14:27:09;30.10;75.40
10095;DHT22;5086;50.830;7.102;2023-06-10T14:29:38;30.00;74.70
10095;DHT22;5086;50.830;7.102;2023-06-10T14:32:06;29.90;76.40
10095;DHT22;5086;50.830;7.102;2023-06-10T14:34:34;29.60;74.90
10095;DHT22;5086;50.830;7.102;2023-06-10T14:37:01;29.40;76.30
10095;DHT22;5086;50.830;7.102;2023-06-10T14:39:32;29.10;77.30
10095;DHT22;5086;50.830;7.102;2023-06-10T14:41:59;29.10;78.00
10095;DHT22;5086;50.830;7.102;2023-06-10T14:44:26;29.30;77.90
10095;DHT22;5086;50.830;7.102;2023-06-10T14:46:54;29.40;74.30
10095;DHT22;5086;50.830;7.102;2023-06-10T14:49:24;29.60;72.90
10095;DHT22;5086;50.830;7.102;2023-06-10T14:51:54;29.70;72.80
10095;DHT22;5086;50.830;7.102;2023-06-10T14:54:25;29.80;74.90
10095;DHT22;5086;50.830;7.102;2023-06-10T14:56:54;29.90;69.70
10095;DHT22;5086;50.830;7.102;2023-06-10T14:59:23;29.90;72.70
10095;DHT22;5086;50.830;7.102;2023-06-10T15:01:51;29.90;67.50
10095;DHT22;5086;50.830;7.102;2023-06-10T15:04:19;29.90;70.60
10095;DHT22;5086;50.830;7.102;2023-06-10T15:06:46;29.90;70.90
10095;DHT22;5086;50.830;7.102;2023-06-10T15:09:15;29.90;72.50
10095;DHT22;5086;50.830;7.102;2023-06-10T15:11:42;29.90;69.30
10095;DHT22;5086;50.830;7.102;2023-06-10T15:14:09;30.00;70.10
10095;DHT22;5086;50.830;7.102;2023-06-10T15:16:35;30.00;69.70
10095;DHT22;5086;50.830;7.102;2023-06-10T15:19:02;30.10;69.50
10095;DHT22;5086;50.830;7.102;2023-06-10T15:21:37;30.10;70.30
10095;DHT22;5086;50.830;7.102;2023-06-10T15:24:04;30.10;68.80
10095;DHT22;5086;50.830;7.102;2023-06-10T15:26:31;30.20;69.00
10095;DHT22;5086;50.830;7.102;2023-06-10T15:28:58;30.20;67.40
10095;DHT22;5086;50.830;7.102;2023-06-10T15:31:29;30.30;69.00
10095;DHT22;5086;50.830;7.102;2023-06-10T15:33:57;30.30;65.60
10095;DHT22;5086;50.830;7.102;2023-06-10T15:36:25;30.10;67.40
10095;DHT22;5086;50.830;7.102;2023-06-10T15:39:00;30.20;66.50
10095;DHT22;5086;50.830;7.102;2023-06-10T15:41:28;30.20;67.10
10095;DHT22;5086;50.830;7.102;2023-06-10T15:43:56;30.10;67.50
10095;DHT22;5086;50.830;7.102;2023-06-10T15:46:25;30.00;68.90
10095;DHT22;5086;50.830;7.102;2023-06-10T15:48:54;30.00;68.90
10095;DHT22;5086;50.830;7.102;2023-06-10T15:51:21;29.90;71.00
10095;DHT22;5086;50.830;7.102;2023-06-10T15:53:51;29.80;68.10
10095;DHT22;5086;50.830;7.102;2023-06-10T15:56:22;29.80;71.90
10095;DHT22;5086;50.830;7.102;2023-06-10T15:58:50;29.80;69.20
10095;DHT22;5086;50.830;7.102;2023-06-10T16:01:17;29.80;68.20
10095;DHT22;5086;50.830;7.102;2023-06-10T16:03:44;29.90;67.40